sensor_id;sensor_type;location;lat;lon;timestamp;P1;durP1;ratioP1;P2;durP2;ratioP2
4808;SDS011;2418;49.930;8.606;2022-07-19T00:00:25;3.60;;;2.88;;
4808;SDS011;2418;49.930;8.606;2022-07-19T00:02:51;4.50;;;2.40;;
4808;SDS011;2418;49.930;8.606;2022-07-19T00:05:18;5.17;;;2.83;;
4808;SDS011;2418;49.930;8.606;2022-07-19T00:07:45;2.92;;;2.72;;
4808;SDS011;2418;49.930;8.606;2022-07-19T00:10:11;2.88;;;2.67;;
4808;SDS011;2418;49.930;8.606;2022-07-19T00:12:38;3.20;;;2.90;;
4808;SDS011;2418;49.930;8.606;2022-07-19T00:15:05;3.35;;;2.50;;
4808;SDS011;2418;49.930;8.606;2022-07-19T00:17:31;6.40;;;2.92;;
4808;SDS011;2418;49.930;8.606;2022-07-19T00:19:57;5.45;;;3.05;;
4808;SDS011;2418;49.930;8.606;2022-07-19T00:22:23;3.20;;;2.75;;
4808;SDS011;2418;49.930;8.606;2022-07-19T00:24:49;5.07;;;3.30;;
4808;SDS011;2418;49.930;8.606;2022-07-19T00:27:15;4.97;;;3.00;;
4808;SDS011;2418;49.930;8.606;2022-07-19T00:29:41;3.15;;;2.63;;
4808;SDS011;2418;49.930;8.606;2022-07-19T00:32:07;3.00;;;2.70;;
4808;SDS011;2418;49.930;8.606;2022-07-19T00:34:33;10.07;;;3.23;;
4808;SDS011;2418;49.930;8.606;2022-07-19T00:36:59;5.50;;;3.00;;
4808;SDS011;2418;49.930;8.606;2022-07-19T00:39:25;3.08;;;2.70;;
4808;SDS011;2418;49.930;8.606;2022-07-19T00:41:51;4.60;;;2.53;;
4808;SDS011;2418;49.930;8.606;2022-07-19T00:44:16;8.25;;;2.80;;
4808;SDS011;2418;49.930;8.606;2022-07-19T00:46:42;3.15;;;2.53;;
4808;SDS011;2418;49.930;8.606;2022-07-19T00:49:08;3.30;;;2.55;;
4808;SDS011;2418;49.930;8.606;2022-07-19T00:51:35;5.50;;;3.00;;
4808;SDS011;2418;49.930;8.606;2022-07-19T00:54:02;10.07;;;2.90;;
4808;SDS011;2418;49.930;8.606;2022-07-19T00:56:28;3.30;;;3.00;;
4808;SDS011;2418;49.930;8.606;2022-07-19T00:58:55;5.53;;;3.05;;
4808;SDS011;2418;49.930;8.606;2022-07-19T01:01:21;2.70;;;2.50;;
4808;SDS011;2418;49.930;8.606;2022-07-19T01:03:47;2.47;;;2.38;;
4808;SDS011;2418;49.930;8.606;2022-07-19T01:06:13;5.13;;;2.70;;
4808;SDS011;2418;49.930;8.606;2022-07-19T01:08:39;5.80;;;2.90;;
4808;SDS011;2418;49.930;8.606;2022-07-19T01:11:06;2.80;;;2.60;;
4808;SDS011;2418;49.930;8.606;2022-07-19T01:13:33;4.50;;;2.90;;
4808;SDS011;2418;49.930;8.606;2022-07-19T01:15:59;3.08;;;2.60;;
4808;SDS011;2418;49.930;8.606;2022-07-19T01:18:25;4.57;;;2.90;;
4808;SDS011;2418;49.930;8.606;2022-07-19T01:20:51;2.80;;;2.60;;
4808;SDS011;2418;49.930;8.606;2022-07-19T01:23:17;7.88;;;2.90;;
4808;SDS011;2418;49.930;8.606;2022-07-19T01:25:43;3.83;;;2.70;;
4808;SDS011;2418;49.930;8.606;2022-07-19T01:28:09;5.97;;;2.70;;
4808;SDS011;2418;49.930;8.606;2022-07-19T01:30:35;4.45;;;2.75;;
4808;SDS011;2418;49.930;8.606;2022-07-19T01:33:02;6.20;;;3.10;;
4808;SDS011;2418;49.930;8.606;2022-07-19T01:35:28;4.70;;;3.10;;
4808;SDS011;2418;49.930;8.606;2022-07-19T01:37:54;6.55;;;2.70;;
4808;SDS011;2418;49.930;8.606;2022-07-19T01:40:21;3.78;;;3.38;;
4808;SDS011;2418;49.930;8.606;2022-07-19T01:42:47;3.00;;;2.90;;
4808;SDS011;2418;49.930;8.606;2022-07-19T01:45:13;5.32;;;3.60;;
4808;SDS011;2418;49.930;8.606;2022-07-19T01:47:40;9.35;;;3.40;;
4808;SDS011;2418;49.930;8.606;2022-07-19T01:50:06;6.35;;;3.80;;
4808;SDS011;2418;49.930;8.606;2022-07-19T01:52:32;4.03;;;3.63;;
4808;SDS011;2418;49.930;8.606;2022-07-19T01:54:58;5.03;;;3.50;;
4808;SDS011;2418;49.930;8.606;2022-07-19T01:57:24;10.87;;;3.43;;
4808;SDS011;2418;49.930;8.606;2022-07-19T01:59:51;5.10;;;4.00;;
4808;SDS011;2418;49.930;8.606;2022-07-19T02:02:17;4.63;;;3.47;;
4808;SDS011;2418;49.930;8.606;2022-07-19T02:04:43;4.23;;;3.40;;
4808;SDS011;2418;49.930;8.606;2022-07-19T02:07:09;4.93;;;3.40;;
4808;SDS011;2418;49.930;8.606;2022-07-19T02:09:35;6.70;;;3.40;;
4808;SDS011;2418;49.930;8.606;2022-07-19T02:12:01;4.40;;;4.00;;
4808;SDS011;2418;49.930;8.606;2022-07-19T02:14:26;3.77;;;3.40;;
4808;SDS011;2418;49.930;8.606;2022-07-19T02:16:52;3.67;;;3.38;;
4808;SDS011;2418;49.930;8.606;2022-07-19T02:19:18;3.70;;;3.40;;
4808;SDS011;2418;49.930;8.606;2022-07-19T02:21:45;8.55;;;3.55;;
4808;SDS011;2418;49.930;8.606;2022-07-19T02:24:11;4.20;;;3.30;;
4808;SDS011;2418;49.930;8.606;2022-07-19T02:26:37;3.83;;;3.63;;
4808;SDS011;2418;49.930;8.606;2022-07-19T02:29:03;4.57;;;3.42;;
4808;SDS011;2418;49.930;8.606;2022-07-19T02:31:29;6.13;;;3.33;;
4808;SDS011;2418;49.930;8.606;2022-07-19T02:33:55;5.38;;;3.60;;
4808;SDS011;2418;49.930;8.606;2022-07-19T02:36:20;5.90;;;3.13;;
4808;SDS011;2418;49.930;8.606;2022-07-19T02:38:46;5.63;;;3.28;;
4808;SDS011;2418;49.930;8.606;2022-07-19T02:41:12;3.65;;;3.40;;
4808;SDS011;2418;49.930;8.606;2022-07-19T02:43:39;7.88;;;3.60;;
4808;SDS011;2418;49.930;8.606;2022-07-19T02:46:05;5.47;;;3.45;;
4808;SDS011;2418;49.930;8.606;2022-07-19T02:48:31;6.30;;;3.40;;
4808;SDS011;2418;49.930;8.606;2022-07-19T02:50:57;3.97;;;3.63;;
4808;SDS011;2418;49.930;8.606;2022-07-19T02:53:23;3.45;;;3.25;;
4808;SDS011;2418;49.930;8.606;2022-07-19T02:55:49;5.80;;;4.00;;
4808;SDS011;2418;49.930;8.606;2022-07-19T02:58:15;4.50;;;3.75;;
4808;SDS011;2418;49.930;8.606;2022-07-19T03:00:41;4.40;;;3.80;;
4808;SDS011;2418;49.930;8.606;2022-07-19T03:03:08;4.85;;;3.47;;
4808;SDS011;2418;49.930;8.606;2022-07-19T03:05:52;5.72;;;4.10;;
4808;SDS011;2418;49.930;8.606;2022-07-19T03:08:18;11.70;;;3.63;;
4808;SDS011;2418;49.930;8.606;2022-07-19T03:10:44;3.50;;;3.25;;
4808;SDS011;2418;49.930;8.606;2022-07-19T03:13:10;10.25;;;3.80;;
4808;SDS011;2418;49.930;8.606;2022-07-19T03:15:36;6.60;;;3.72;;
4808;SDS011;2418;49.930;8.606;2022-07-19T03:18:03;4.50;;;3.17;;
4808;SDS011;2418;49.930;8.606;2022-07-19T03:20:29;10.18;;;3.60;;
4808;SDS011;2418;49.930;8.606;2022-07-19T03:22:55;11.10;;;3.70;;
4808;SDS011;2418;49.930;8.606;2022-07-19T03:25:21;5.80;;;3.87;;
4808;SDS011;2418;49.930;8.606;2022-07-19T03:27:47;13.30;;;4.10;;
4808;SDS011;2418;49.930;8.606;2022-07-19T03:30:13;4.40;;;3.50;;
4808;SDS011;2418;49.930;8.606;2022-07-19T03:32:39;8.15;;;4.10;;
4808;SDS011;2418;49.930;8.606;2022-07-19T03:35:05;4.75;;;3.70;;
4808;SDS011;2418;49.930;8.606;2022-07-19T03:37:31;9.93;;;4.18;;
4808;SDS011;2418;49.930;8.606;2022-07-19T03:39:57;6.60;;;3.88;;
4808;SDS011;2418;49.930;8.606;2022-07-19T03:42:23;10.80;;;3.80;;
4808;SDS011;2418;49.930;8.606;2022-07-19T03:44:49;6.28;;;4.45;;
4808;SDS011;2418;49.930;8.606;2022-07-19T03:47:15;5.20;;;4.18;;
4808;SDS011;2418;49.930;8.606;2022-07-19T03:49:41;5.50;;;3.73;;
4808;SDS011;2418;49.930;8.606;2022-07-19T03:52:07;10.40;;;4.50;;
4808;SDS011;2418;49.930;8.606;2022-07-19T03:54:33;4.47;;;4.25;;
4808;SDS011;2418;49.930;8.606;2022-07-19T03:56:59;5.45;;;4.10;;
4808;SDS011;2418;49.930;8.606;2022-07-19T03:59:25;4.32;;;4.03;;
4808;SDS011;2418;49.930;8.606;2022-07-19T04:01:51;5.13;;;4.00;;
4808;SDS011;2418;49.930;8.606;2022-07-19T04:04:17;11.70;;;4.00;;
4808;SDS011;2418;49.930;8.606;2022-07-19T04:06:43;4.25;;;3.45;;
4808;SDS011;2418;49.930;8.606;2022-07-19T04:09:10;5.20;;;4.20;;
4808;SDS011;2418;49.930;8.606;2022-07-19T04:11:36;9.10;;;4.60;;
4808;SDS011;2418;49.930;8.606;2022-07-19T04:14:02;8.18;;;4.00;;
4808;SDS011;2418;49.930;8.606;2022-07-19T04:16:28;6.13;;;4.10;;
4808;SDS011;2418;49.930;8.606;2022-07-19T04:18:54;6.03;;;4.20;;
4808;SDS011;2418;49.930;8.606;2022-07-19T04:21:20;6.22;;;3.80;;
4808;SDS011;2418;49.930;8.606;2022-07-19T04:23:46;4.00;;;3.58;;
4808;SDS011;2418;49.930;8.606;2022-07-19T04:26:12;4.45;;;4.05;;
4808;SDS011;2418;49.930;8.606;2022-07-19T04:28:38;3.75;;;3.42;;
4808;SDS011;2418;49.930;8.606;2022-07-19T04:31:04;4.25;;;3.78;;
4808;SDS011;2418;49.930;8.606;2022-07-19T04:33:30;3.63;;;3.20;;
4808;SDS011;2418;49.930;8.606;2022-07-19T04:35:56;5.45;;;3.80;;
4808;SDS011;2418;49.930;8.606;2022-07-19T04:38:22;7.60;;;3.97;;
4808;SDS011;2418;49.930;8.606;2022-07-19T04:40:48;7.05;;;3.85;;
4808;SDS011;2418;49.930;8.606;2022-07-19T04:43:17;4.07;;;3.65;;
4808;SDS011;2418;49.930;8.606;2022-07-19T04:45:43;4.70;;;3.33;;
4808;SDS011;2418;49.930;8.606;2022-07-19T04:48:10;9.95;;;4.00;;
4808;SDS011;2418;49.930;8.606;2022-07-19T04:50:36;4.47;;;4.07;;
4808;SDS011;2418;49.930;8.606;2022-07-19T04:53:02;3.70;;;3.50;;
4808;SDS011;2418;49.930;8.606;2022-07-19T04:55:27;7.10;;;3.42;;
4808;SDS011;2418;49.930;8.606;2022-07-19T04:57:53;6.13;;;3.50;;
4808;SDS011;2418;49.930;8.606;2022-07-19T05:00:19;5.03;;;3.55;;
4808;SDS011;2418;49.930;8.606;2022-07-19T05:02:45;3.88;;;3.53;;
4808;SDS011;2418;49.930;8.606;2022-07-19T05:05:11;10.40;;;3.83;;
4808;SDS011;2418;49.930;8.606;2022-07-19T05:07:39;18.00;;;4.17;;
4808;SDS011;2418;49.930;8.606;2022-07-19T05:10:05;16.60;;;4.33;;
4808;SDS011;2418;49.930;8.606;2022-07-19T05:12:32;10.95;;;4.70;;
4808;SDS011;2418;49.930;8.606;2022-07-19T05:14:58;20.25;;;4.30;;
4808;SDS011;2418;49.930;8.606;2022-07-19T05:17:25;13.80;;;4.13;;
4808;SDS011;2418;49.930;8.606;2022-07-19T05:19:50;9.50;;;4.45;;
4808;SDS011;2418;49.930;8.606;2022-07-19T05:22:16;12.32;;;3.97;;
4808;SDS011;2418;49.930;8.606;2022-07-19T05:24:42;17.63;;;4.82;;
4808;SDS011;2418;49.930;8.606;2022-07-19T05:27:08;10.98;;;4.45;;
4808;SDS011;2418;49.930;8.606;2022-07-19T05:29:34;9.98;;;4.35;;
4808;SDS011;2418;49.930;8.606;2022-07-19T05:32:00;12.30;;;4.20;;
4808;SDS011;2418;49.930;8.606;2022-07-19T05:34:26;13.50;;;4.30;;
4808;SDS011;2418;49.930;8.606;2022-07-19T05:36:52;15.07;;;3.80;;
4808;SDS011;2418;49.930;8.606;2022-07-19T05:39:18;3.65;;;3.35;;
4808;SDS011;2418;49.930;8.606;2022-07-19T05:41:44;11.30;;;3.58;;
4808;SDS011;2418;49.930;8.606;2022-07-19T05:44:10;4.32;;;3.92;;
4808;SDS011;2418;49.930;8.606;2022-07-19T05:46:36;6.20;;;3.67;;
4808;SDS011;2418;49.930;8.606;2022-07-19T05:49:06;3.90;;;3.50;;
4808;SDS011;2418;49.930;8.606;2022-07-19T05:51:32;5.32;;;3.13;;
4808;SDS011;2418;49.930;8.606;2022-07-19T05:53:58;4.97;;;3.20;;
4808;SDS011;2418;49.930;8.606;2022-07-19T05:56:25;7.80;;;3.47;;
4808;SDS011;2418;49.930;8.606;2022-07-19T05:58:51;4.85;;;3.85;;
4808;SDS011;2418;49.930;8.606;2022-07-19T06:01:18;6.15;;;3.58;;
4808;SDS011;2418;49.930;8.606;2022-07-19T06:03:44;7.80;;;3.60;;
4808;SDS011;2418;49.930;8.606;2022-07-19T06:06:10;5.93;;;3.00;;
4808;SDS011;2418;49.930;8.606;2022-07-19T06:08:37;3.47;;;3.15;;
4808;SDS011;2418;49.930;8.606;2022-07-19T06:11:02;3.60;;;3.30;;
4808;SDS011;2418;49.930;8.606;2022-07-19T06:13:28;5.73;;;3.20;;
4808;SDS011;2418;49.930;8.606;2022-07-19T06:15:54;5.68;;;2.75;;
4808;SDS011;2418;49.930;8.606;2022-07-19T06:18:19;3.67;;;2.70;;
4808;SDS011;2418;49.930;8.606;2022-07-19T06:20:45;3.40;;;2.80;;
4808;SDS011;2418;49.930;8.606;2022-07-19T06:23:11;4.35;;;2.60;;
4808;SDS011;2418;49.930;8.606;2022-07-19T06:25:37;5.60;;;2.55;;
4808;SDS011;2418;49.930;8.606;2022-07-19T06:28:03;4.90;;;2.90;;
4808;SDS011;2418;49.930;8.606;2022-07-19T06:30:29;5.82;;;2.47;;
4808;SDS011;2418;49.930;8.606;2022-07-19T06:32:55;2.87;;;2.67;;
4808;SDS011;2418;49.930;8.606;2022-07-19T06:35:20;6.90;;;2.40;;
4808;SDS011;2418;49.930;8.606;2022-07-19T06:37:46;2.93;;;2.73;;
4808;SDS011;2418;49.930;8.606;2022-07-19T06:40:12;5.03;;;2.60;;
4808;SDS011;2418;49.930;8.606;2022-07-19T06:42:38;10.00;;;2.70;;
4808;SDS011;2418;49.930;8.606;2022-07-19T06:45:04;7.20;;;2.60;;
4808;SDS011;2418;49.930;8.606;2022-07-19T06:47:31;8.20;;;2.95;;
4808;SDS011;2418;49.930;8.606;2022-07-19T06:50:00;4.15;;;2.92;;
4808;SDS011;2418;49.930;8.606;2022-07-19T06:52:26;2.90;;;2.70;;
4808;SDS011;2418;49.930;8.606;2022-07-19T06:54:52;8.77;;;3.25;;
4808;SDS011;2418;49.930;8.606;2022-07-19T06:57:18;3.22;;;2.65;;
4808;SDS011;2418;49.930;8.606;2022-07-19T06:59:44;3.10;;;2.90;;
4808;SDS011;2418;49.930;8.606;2022-07-19T07:02:09;4.53;;;2.90;;
4808;SDS011;2418;49.930;8.606;2022-07-19T07:04:36;3.10;;;2.88;;
4808;SDS011;2418;49.930;8.606;2022-07-19T07:07:01;3.00;;;2.70;;
4808;SDS011;2418;49.930;8.606;2022-07-19T07:09:27;11.10;;;3.27;;
4808;SDS011;2418;49.930;8.606;2022-07-19T07:11:53;3.38;;;3.08;;
4808;SDS011;2418;49.930;8.606;2022-07-19T07:14:19;5.00;;;3.10;;
4808;SDS011;2418;49.930;8.606;2022-07-19T07:16:45;4.30;;;2.80;;
4808;SDS011;2418;49.930;8.606;2022-07-19T07:19:11;2.50;;;2.50;;
4808;SDS011;2418;49.930;8.606;2022-07-19T07:21:37;6.20;;;3.20;;
4808;SDS011;2418;49.930;8.606;2022-07-19T07:24:03;6.55;;;3.00;;
4808;SDS011;2418;49.930;8.606;2022-07-19T07:26:30;8.30;;;3.10;;
4808;SDS011;2418;49.930;8.606;2022-07-19T07:28:56;2.67;;;2.47;;
4808;SDS011;2418;49.930;8.606;2022-07-19T07:31:22;7.53;;;3.00;;
4808;SDS011;2418;49.930;8.606;2022-07-19T07:33:48;4.57;;;2.90;;
4808;SDS011;2418;49.930;8.606;2022-07-19T07:36:14;4.30;;;2.80;;
4808;SDS011;2418;49.930;8.606;2022-07-19T07:38:40;3.50;;;3.00;;
4808;SDS011;2418;49.930;8.606;2022-07-19T07:41:06;4.65;;;3.30;;
4808;SDS011;2418;49.930;8.606;2022-07-19T07:43:32;2.70;;;2.50;;
4808;SDS011;2418;49.930;8.606;2022-07-19T07:45:58;2.90;;;2.70;;
4808;SDS011;2418;49.930;8.606;2022-07-19T07:48:24;4.40;;;2.50;;
4808;SDS011;2418;49.930;8.606;2022-07-19T07:50:50;3.70;;;2.40;;
4808;SDS011;2418;49.930;8.606;2022-07-19T07:53:16;3.10;;;3.00;;
4808;SDS011;2418;49.930;8.606;2022-07-19T07:55:42;2.67;;;2.47;;
4808;SDS011;2418;49.930;8.606;2022-07-19T07:58:09;2.65;;;2.45;;
4808;SDS011;2418;49.930;8.606;2022-07-19T08:00:35;3.08;;;2.88;;
4808;SDS011;2418;49.930;8.606;2022-07-19T08:03:01;4.68;;;2.75;;
4808;SDS011;2418;49.930;8.606;2022-07-19T08:05:27;3.38;;;2.80;;
4808;SDS011;2418;49.930;8.606;2022-07-19T08:07:53;2.80;;;2.60;;
4808;SDS011;2418;49.930;8.606;2022-07-19T08:10:23;5.00;;;2.50;;
4808;SDS011;2418;49.930;8.606;2022-07-19T08:12:49;2.73;;;2.63;;
4808;SDS011;2418;49.930;8.606;2022-07-19T08:15:16;5.70;;;2.35;;
4808;SDS011;2418;49.930;8.606;2022-07-19T08:17:42;2.00;;;2.00;;
4808;SDS011;2418;49.930;8.606;2022-07-19T08:20:08;3.38;;;2.20;;
4808;SDS011;2418;49.930;8.606;2022-07-19T08:22:34;6.43;;;2.25;;
4808;SDS011;2418;49.930;8.606;2022-07-19T08:25:00;2.70;;;2.50;;
4808;SDS011;2418;49.930;8.606;2022-07-19T08:27:26;2.75;;;2.55;;
4808;SDS011;2418;49.930;8.606;2022-07-19T08:29:52;2.90;;;1.80;;
4808;SDS011;2418;49.930;8.606;2022-07-19T08:32:18;3.60;;;1.90;;
4808;SDS011;2418;49.930;8.606;2022-07-19T08:34:44;2.20;;;2.10;;
4808;SDS011;2418;49.930;8.606;2022-07-19T08:37:10;5.10;;;2.30;;
4808;SDS011;2418;49.930;8.606;2022-07-19T08:39:36;6.50;;;2.50;;
4808;SDS011;2418;49.930;8.606;2022-07-19T08:42:02;3.37;;;2.30;;
4808;SDS011;2418;49.930;8.606;2022-07-19T08:44:28;5.25;;;2.35;;
4808;SDS011;2418;49.930;8.606;2022-07-19T08:46:54;5.03;;;2.42;;
4808;SDS011;2418;49.930;8.606;2022-07-19T08:49:20;3.00;;;2.50;;
4808;SDS011;2418;49.930;8.606;2022-07-19T08:51:48;4.57;;;2.40;;
4808;SDS011;2418;49.930;8.606;2022-07-19T08:54:14;3.95;;;2.30;;
4808;SDS011;2418;49.930;8.606;2022-07-19T08:56:41;11.43;;;3.60;;
4808;SDS011;2418;49.930;8.606;2022-07-19T08:59:25;7.50;;;2.30;;
4808;SDS011;2418;49.930;8.606;2022-07-19T09:01:51;5.72;;;2.80;;
4808;SDS011;2418;49.930;8.606;2022-07-19T09:04:18;2.58;;;2.10;;
4808;SDS011;2418;49.930;8.606;2022-07-19T09:06:46;7.60;;;2.33;;
4808;SDS011;2418;49.930;8.606;2022-07-19T09:09:15;4.50;;;2.35;;
4808;SDS011;2418;49.930;8.606;2022-07-19T09:11:42;3.60;;;1.83;;
4808;SDS011;2418;49.930;8.606;2022-07-19T09:14:14;6.25;;;2.08;;
4808;SDS011;2418;49.930;8.606;2022-07-19T09:16:53;5.00;;;2.42;;
4808;SDS011;2418;49.930;8.606;2022-07-19T09:19:32;2.03;;;1.83;;
4808;SDS011;2418;49.930;8.606;2022-07-19T09:22:03;7.45;;;2.08;;
4808;SDS011;2418;49.930;8.606;2022-07-19T09:24:33;2.28;;;2.15;;
4808;SDS011;2418;49.930;8.606;2022-07-19T09:27:04;2.60;;;1.85;;
4808;SDS011;2418;49.930;8.606;2022-07-19T09:29:31;4.53;;;1.90;;
4808;SDS011;2418;49.930;8.606;2022-07-19T09:32:01;2.38;;;1.80;;
4808;SDS011;2418;49.930;8.606;2022-07-19T09:34:28;2.50;;;2.10;;
4808;SDS011;2418;49.930;8.606;2022-07-19T09:39:40;2.30;;;2.10;;
4808;SDS011;2418;49.930;8.606;2022-07-19T09:42:12;3.60;;;1.90;;
4808;SDS011;2418;49.930;8.606;2022-07-19T09:44:38;4.70;;;2.10;;
4808;SDS011;2418;49.930;8.606;2022-07-19T09:47:04;2.00;;;1.90;;
4808;SDS011;2418;49.930;8.606;2022-07-19T09:49:30;2.33;;;1.80;;
4808;SDS011;2418;49.930;8.606;2022-07-19T09:51:56;3.10;;;1.80;;
4808;SDS011;2418;49.930;8.606;2022-07-19T09:54:26;10.70;;;2.50;;
4808;SDS011;2418;49.930;8.606;2022-07-19T09:56:52;1.80;;;1.50;;
4808;SDS011;2418;49.930;8.606;2022-07-19T09:59:19;6.50;;;2.00;;
4808;SDS011;2418;49.930;8.606;2022-07-19T10:01:46;3.13;;;1.90;;
4808;SDS011;2418;49.930;8.606;2022-07-19T10:04:17;1.90;;;1.70;;
4808;SDS011;2418;49.930;8.606;2022-07-19T10:06:44;2.22;;;1.92;;
4808;SDS011;2418;49.930;8.606;2022-07-19T10:09:12;4.05;;;2.10;;
4808;SDS011;2418;49.930;8.606;2022-07-19T10:11:41;13.80;;;1.88;;
4808;SDS011;2418;49.930;8.606;2022-07-19T10:14:07;3.20;;;2.00;;
4808;SDS011;2418;49.930;8.606;2022-07-19T10:19:40;3.88;;;1.90;;
4808;SDS011;2418;49.930;8.606;2022-07-19T10:22:25;1.80;;;1.70;;
4808;SDS011;2418;49.930;8.606;2022-07-19T10:24:53;1.87;;;1.77;;
4808;SDS011;2418;49.930;8.606;2022-07-19T10:29:49;3.53;;;1.50;;
4808;SDS011;2418;49.930;8.606;2022-07-19T10:32:15;1.73;;;1.63;;
4808;SDS011;2418;49.930;8.606;2022-07-19T10:34:41;2.90;;;1.80;;
4808;SDS011;2418;49.930;8.606;2022-07-19T10:37:08;2.60;;;2.40;;
4808;SDS011;2418;49.930;8.606;2022-07-19T10:39:35;4.53;;;1.88;;
4808;SDS011;2418;49.930;8.606;2022-07-19T10:44:29;1.42;;;1.42;;
4808;SDS011;2418;49.930;8.606;2022-07-19T10:46:54;4.87;;;2.07;;
4808;SDS011;2418;49.930;8.606;2022-07-19T10:50:04;1.83;;;1.70;;
4808;SDS011;2418;49.930;8.606;2022-07-19T10:57:39;1.80;;;1.70;;
4808;SDS011;2418;49.930;8.606;2022-07-19T11:00:15;2.70;;;1.50;;
4808;SDS011;2418;49.930;8.606;2022-07-19T11:02:41;3.50;;;1.98;;
4808;SDS011;2418;49.930;8.606;2022-07-19T11:05:07;3.20;;;1.60;;
4808;SDS011;2418;49.930;8.606;2022-07-19T11:07:47;2.40;;;2.20;;
4808;SDS011;2418;49.930;8.606;2022-07-19T11:10:14;2.80;;;1.65;;
4808;SDS011;2418;49.930;8.606;2022-07-19T11:12:47;5.10;;;1.80;;
4808;SDS011;2418;49.930;8.606;2022-07-19T11:15:13;1.70;;;1.60;;
4808;SDS011;2418;49.930;8.606;2022-07-19T11:17:39;1.98;;;1.77;;
4808;SDS011;2418;49.930;8.606;2022-07-19T11:20:06;3.63;;;1.88;;
4808;SDS011;2418;49.930;8.606;2022-07-19T11:22:38;5.60;;;2.40;;
4808;SDS011;2418;49.930;8.606;2022-07-19T11:25:05;2.80;;;1.80;;
4808;SDS011;2418;49.930;8.606;2022-07-19T11:27:32;2.08;;;1.98;;
4808;SDS011;2418;49.930;8.606;2022-07-19T11:29:58;1.50;;;1.50;;
4808;SDS011;2418;49.930;8.606;2022-07-19T11:32:25;1.77;;;1.67;;
4808;SDS011;2418;49.930;8.606;2022-07-19T11:34:58;2.10;;;1.70;;
4808;SDS011;2418;49.930;8.606;2022-07-19T11:37:26;5.13;;;1.70;;
4808;SDS011;2418;49.930;8.606;2022-07-19T11:39:52;1.42;;;1.42;;
4808;SDS011;2418;49.930;8.606;2022-07-19T11:47:46;2.30;;;1.80;;
4808;SDS011;2418;49.930;8.606;2022-07-19T11:50:13;2.10;;;2.00;;
4808;SDS011;2418;49.930;8.606;2022-07-19T11:52:58;4.50;;;1.80;;
4808;SDS011;2418;49.930;8.606;2022-07-19T11:55:25;2.60;;;1.60;;
4808;SDS011;2418;49.930;8.606;2022-07-19T11:57:52;1.80;;;1.70;;
4808;SDS011;2418;49.930;8.606;2022-07-19T12:00:18;3.42;;;2.15;;
4808;SDS011;2418;49.930;8.606;2022-07-19T12:02:55;1.50;;;1.40;;
4808;SDS011;2418;49.930;8.606;2022-07-19T12:05:35;3.35;;;1.35;;
4808;SDS011;2418;49.930;8.606;2022-07-19T12:08:02;5.65;;;1.70;;
4808;SDS011;2418;49.930;8.606;2022-07-19T12:13:02;3.75;;;1.80;;
4808;SDS011;2418;49.930;8.606;2022-07-19T12:19:09;2.60;;;1.80;;
4808;SDS011;2418;49.930;8.606;2022-07-19T12:26:33;3.30;;;2.00;;
4808;SDS011;2418;49.930;8.606;2022-07-19T12:28:58;7.75;;;1.77;;
4808;SDS011;2418;49.930;8.606;2022-07-19T12:31:24;8.02;;;1.90;;
4808;SDS011;2418;49.930;8.606;2022-07-19T12:34:00;5.88;;;1.98;;
4808;SDS011;2418;49.930;8.606;2022-07-19T12:36:32;4.43;;;2.10;;
4808;SDS011;2418;49.930;8.606;2022-07-19T12:38:59;2.47;;;2.13;;
4808;SDS011;2418;49.930;8.606;2022-07-19T12:41:25;2.40;;;2.10;;
4808;SDS011;2418;49.930;8.606;2022-07-19T12:43:50;2.17;;;2.00;;
4808;SDS011;2418;49.930;8.606;2022-07-19T12:46:16;11.15;;;2.20;;
4808;SDS011;2418;49.930;8.606;2022-07-19T12:48:42;3.60;;;1.93;;
4808;SDS011;2418;49.930;8.606;2022-07-19T12:51:08;3.00;;;1.60;;
4808;SDS011;2418;49.930;8.606;2022-07-19T12:53:34;6.75;;;1.75;;
4808;SDS011;2418;49.930;8.606;2022-07-19T12:56:00;3.80;;;1.90;;
4808;SDS011;2418;49.930;8.606;2022-07-19T12:58:26;5.25;;;1.95;;
4808;SDS011;2418;49.930;8.606;2022-07-19T13:01:11;2.00;;;1.90;;
4808;SDS011;2418;49.930;8.606;2022-07-19T13:03:37;2.50;;;2.30;;
4808;SDS011;2418;49.930;8.606;2022-07-19T13:06:04;7.50;;;2.30;;
4808;SDS011;2418;49.930;8.606;2022-07-19T13:08:30;2.60;;;2.30;;
4808;SDS011;2418;49.930;8.606;2022-07-19T13:10:56;2.30;;;2.10;;
4808;SDS011;2418;49.930;8.606;2022-07-19T13:13:23;2.80;;;1.70;;
4808;SDS011;2418;49.930;8.606;2022-07-19T13:15:50;2.10;;;2.00;;
4808;SDS011;2418;49.930;8.606;2022-07-19T13:18:16;3.00;;;2.10;;
4808;SDS011;2418;49.930;8.606;2022-07-19T13:20:42;2.33;;;2.13;;
4808;SDS011;2418;49.930;8.606;2022-07-19T13:23:11;1.80;;;1.70;;
4808;SDS011;2418;49.930;8.606;2022-07-19T13:25:37;1.67;;;1.67;;
4808;SDS011;2418;49.930;8.606;2022-07-19T13:28:03;5.43;;;2.08;;
4808;SDS011;2418;49.930;8.606;2022-07-19T13:30:29;3.53;;;1.73;;
4808;SDS011;2418;49.930;8.606;2022-07-19T13:32:55;4.80;;;2.20;;
4808;SDS011;2418;49.930;8.606;2022-07-19T13:35:22;2.45;;;2.20;;
4808;SDS011;2418;49.930;8.606;2022-07-19T13:37:48;7.70;;;2.10;;
4808;SDS011;2418;49.930;8.606;2022-07-19T13:40:14;3.15;;;1.63;;
4808;SDS011;2418;49.930;8.606;2022-07-19T13:42:40;1.80;;;1.67;;
4808;SDS011;2418;49.930;8.606;2022-07-19T13:45:06;5.68;;;2.00;;
4808;SDS011;2418;49.930;8.606;2022-07-19T13:47:32;2.50;;;1.90;;
4808;SDS011;2418;49.930;8.606;2022-07-19T13:49:59;2.00;;;1.90;;
4808;SDS011;2418;49.930;8.606;2022-07-19T13:52:25;2.42;;;2.20;;
4808;SDS011;2418;49.930;8.606;2022-07-19T13:54:50;1.73;;;1.63;;
4808;SDS011;2418;49.930;8.606;2022-07-19T13:57:16;1.83;;;1.73;;
4808;SDS011;2418;49.930;8.606;2022-07-19T13:59:42;2.73;;;1.70;;
4808;SDS011;2418;49.930;8.606;2022-07-19T14:02:08;3.97;;;2.00;;
4808;SDS011;2418;49.930;8.606;2022-07-19T14:04:35;3.30;;;2.10;;
4808;SDS011;2418;49.930;8.606;2022-07-19T14:07:00;2.25;;;1.73;;
4808;SDS011;2418;49.930;8.606;2022-07-19T14:09:26;4.28;;;1.70;;
4808;SDS011;2418;49.930;8.606;2022-07-19T14:11:52;2.80;;;1.90;;
4808;SDS011;2418;49.930;8.606;2022-07-19T14:14:18;9.10;;;1.98;;
4808;SDS011;2418;49.930;8.606;2022-07-19T14:16:43;3.03;;;2.00;;
4808;SDS011;2418;49.930;8.606;2022-07-19T14:19:11;4.70;;;1.85;;
4808;SDS011;2418;49.930;8.606;2022-07-19T14:21:37;2.00;;;1.70;;
4808;SDS011;2418;49.930;8.606;2022-07-19T14:24:03;6.07;;;1.80;;
4808;SDS011;2418;49.930;8.606;2022-07-19T14:26:29;2.72;;;1.90;;
4808;SDS011;2418;49.930;8.606;2022-07-19T14:28:55;9.02;;;1.90;;
4808;SDS011;2418;49.930;8.606;2022-07-19T14:31:21;2.25;;;2.15;;
4808;SDS011;2418;49.930;8.606;2022-07-19T14:33:47;3.80;;;2.08;;
4808;SDS011;2418;49.930;8.606;2022-07-19T14:36:13;5.82;;;2.20;;
4808;SDS011;2418;49.930;8.606;2022-07-19T14:38:39;2.13;;;2.03;;
4808;SDS011;2418;49.930;8.606;2022-07-19T14:41:05;1.80;;;1.70;;
4808;SDS011;2418;49.930;8.606;2022-07-19T14:43:31;2.00;;;1.90;;
4808;SDS011;2418;49.930;8.606;2022-07-19T14:45:56;2.57;;;2.00;;
4808;SDS011;2418;49.930;8.606;2022-07-19T14:48:22;1.80;;;1.80;;
4808;SDS011;2418;49.930;8.606;2022-07-19T14:50:48;1.70;;;1.60;;
4808;SDS011;2418;49.930;8.606;2022-07-19T14:53:15;2.15;;;1.80;;
4808;SDS011;2418;49.930;8.606;2022-07-19T14:55:41;2.70;;;2.00;;
4808;SDS011;2418;49.930;8.606;2022-07-19T14:58:07;1.80;;;1.80;;
4808;SDS011;2418;49.930;8.606;2022-07-19T15:00:33;3.40;;;1.92;;
4808;SDS011;2418;49.930;8.606;2022-07-19T15:02:59;2.22;;;1.73;;
4808;SDS011;2418;49.930;8.606;2022-07-19T15:05:25;5.30;;;1.90;;
4808;SDS011;2418;49.930;8.606;2022-07-19T15:07:51;4.00;;;1.60;;
4808;SDS011;2418;49.930;8.606;2022-07-19T15:10:17;4.03;;;1.90;;
4808;SDS011;2418;49.930;8.606;2022-07-19T15:12:43;1.77;;;1.70;;
4808;SDS011;2418;49.930;8.606;2022-07-19T15:15:08;3.42;;;1.52;;
4808;SDS011;2418;49.930;8.606;2022-07-19T15:17:35;1.80;;;1.70;;
4808;SDS011;2418;49.930;8.606;2022-07-19T15:20:01;1.40;;;1.40;;
4808;SDS011;2418;49.930;8.606;2022-07-19T15:22:27;3.42;;;1.40;;
4808;SDS011;2418;49.930;8.606;2022-07-19T15:24:54;3.55;;;1.80;;
4808;SDS011;2418;49.930;8.606;2022-07-19T15:27:19;4.47;;;1.60;;
4808;SDS011;2418;49.930;8.606;2022-07-19T15:29:45;1.97;;;1.53;;
4808;SDS011;2418;49.930;8.606;2022-07-19T15:32:11;2.65;;;1.70;;
4808;SDS011;2418;49.930;8.606;2022-07-19T15:34:37;1.90;;;1.30;;
4808;SDS011;2418;49.930;8.606;2022-07-19T15:37:03;3.47;;;1.48;;
4808;SDS011;2418;49.930;8.606;2022-07-19T15:39:29;10.65;;;1.63;;
4808;SDS011;2418;49.930;8.606;2022-07-19T15:41:55;4.00;;;1.20;;
4808;SDS011;2418;49.930;8.606;2022-07-19T15:44:21;2.40;;;1.38;;